createdAt,value
2022-11-01T00:02:17.438Z,38.97
2022-11-01T00:04:44.787Z,41.03
2022-11-01T00:07:12.131Z,38.70
2022-11-01T00:09:39.387Z,38.58
2022-11-01T00:12:06.860Z,38.72
2022-11-01T00:14:34.083Z,41.05
2022-11-01T00:17:01.611Z,39.72
2022-11-01T00:19:28.825Z,41.03
2022-11-01T00:21:57.034Z,38.92
2022-11-01T00:24:25.222Z,38.63
2022-11-01T00:26:52.711Z,37.95
2022-11-01T00:29:19.952Z,39.20
2022-11-01T00:31:47.332Z,40.70
2022-11-01T00:34:16.376Z,37.65
2022-11-01T00:36:44.496Z,40.75
2022-11-01T00:39:16.098Z,41.28
2022-11-01T00:41:43.676Z,39.63
2022-11-01T00:44:10.903Z,41.00
2022-11-01T00:46:38.445Z,38.60
2022-11-01T00:49:05.725Z,38.03
2022-11-01T00:51:33.138Z,43.63
2022-11-01T00:54:00.288Z,39.33
2022-11-01T00:56:27.742Z,43.10
2022-11-01T00:58:54.942Z,40.10
2022-11-01T01:01:22.656Z,39.45
2022-11-01T01:03:50.023Z,38.53
2022-11-01T01:06:17.527Z,36.30
2022-11-01T01:08:44.720Z,39.53
2022-11-01T01:11:12.492Z,37.45
2022-11-01T01:13:39.646Z,36.10
2022-11-01T01:16:12.495Z,36.53
2022-11-01T01:18:40.095Z,37.65
2022-11-01T01:21:08.004Z,37.55
2022-11-01T01:23:35.852Z,33.97
2022-11-01T01:26:09.211Z,35.03
2022-11-01T01:28:41.781Z,34.17
2022-11-01T01:31:14.162Z,34.85
2022-11-01T01:33:41.796Z,34.30
2022-11-01T01:36:09.627Z,35.42
2022-11-01T01:38:37.252Z,31.02
2022-11-01T01:41:24.042Z,33.78
2022-11-01T01:43:51.380Z,31.92
2022-11-01T01:46:18.816Z,32.35
2022-11-01T01:48:55.449Z,28.13
2022-11-01T01:51:28.935Z,23.98
2022-11-01T01:53:58.899Z,26.30
2022-11-01T01:56:37.323Z,24.38
2022-11-01T01:59:10.187Z,21.52
2022-11-01T02:01:41.212Z,26.80
2022-11-01T02:04:43.707Z,22.42
2022-11-01T02:07:12.156Z,23.92
2022-11-01T02:09:40.191Z,22.70
2022-11-01T02:12:10.801Z,21.33
2022-11-01T02:14:42.302Z,25.73
2022-11-01T02:17:46.280Z,24.63
2022-11-01T02:20:59.491Z,24.20
2022-11-01T02:23:58.850Z,25.13
2022-11-01T02:27:01.219Z,23.52
2022-11-01T02:30:06.233Z,22.50
2022-11-01T02:33:19.323Z,23.17
2022-11-01T02:35:55.698Z,24.58
2022-11-01T02:38:46.435Z,28.33
2022-11-01T02:41:20.740Z,25.73
2022-11-01T02:44:10.751Z,29.77
2022-11-01T02:47:01.814Z,26.48
2022-11-01T02:49:37.062Z,29.08
2022-11-01T02:52:10.465Z,27.75
2022-11-01T02:54:57.132Z,26.13
2022-11-01T02:57:49.316Z,27.48
2022-11-01T03:00:35.829Z,24.65
2022-11-01T03:03:24.647Z,25.77
2022-11-01T03:06:00.680Z,27.17
2022-11-01T03:08:35.625Z,26.10
2022-11-01T03:11:17.890Z,23.20
2022-11-01T03:14:06.961Z,23.40
2022-11-01T03:17:00.630Z,24.05
2022-11-01T03:19:46.481Z,22.80
2022-11-01T03:22:21.348Z,21.73
2022-11-01T03:25:39.330Z,23.38
2022-11-01T03:28:09.615Z,22.13
2022-11-01T03:30:44.439Z,24.42
2022-11-01T03:33:17.193Z,22.48
2022-11-01T03:35:50.412Z,26.05
2022-11-01T03:38:29.084Z,23.65
2022-11-01T03:41:11.474Z,24.15
2022-11-01T03:43:40.615Z,22.65
2022-11-01T03:46:09.585Z,23.23
2022-11-01T03:48:41.361Z,23.70
2022-11-01T03:51:08.863Z,26.80
2022-11-01T03:53:36.098Z,27.45
2022-11-01T03:56:03.653Z,27.50
2022-11-01T03:58:41.969Z,27.27
2022-11-01T04:01:12.745Z,28.67
2022-11-01T04:03:40.537Z,25.25
2022-11-01T04:06:08.477Z,26.15
2022-11-01T04:08:37.027Z,28.42
2022-11-01T04:11:05.361Z,25.80
2022-11-01T04:13:32.744Z,24.25
2022-11-01T04:16:18.844Z,22.33
2022-11-01T04:19:04.700Z,22.27
2022-11-01T04:21:32.849Z,22.98
2022-11-01T04:24:00.123Z,20.63
2022-11-01T04:26:27.585Z,19.45
2022-11-01T04:28:57.744Z,16.48
2022-11-01T04:31:26.770Z,16.88
2022-11-01T04:33:56.366Z,14.30
2022-11-01T04:36:25.049Z,14.07
2022-11-01T04:38:57.981Z,15.57
2022-11-01T04:41:29.265Z,14.55
2022-11-01T04:44:00.169Z,14.43
2022-11-01T04:46:34.251Z,13.68
2022-11-01T04:49:01.634Z,14.25
2022-11-01T04:51:29.230Z,13.00
2022-11-01T04:53:56.487Z,17.02
2022-11-01T04:56:23.869Z,13.35
2022-11-01T04:58:51.022Z,17.30
2022-11-01T05:01:18.466Z,14.60
2022-11-01T05:03:47.892Z,15.48
2022-11-01T05:06:15.295Z,13.65
2022-11-01T05:08:42.831Z,12.95
2022-11-01T05:11:10.198Z,13.05
2022-11-01T05:13:37.459Z,15.73
2022-11-01T05:16:18.999Z,14.57
2022-11-01T05:18:47.314Z,13.13
2022-11-01T05:21:14.940Z,15.20
2022-11-01T05:23:42.170Z,16.15
2022-11-01T05:26:10.150Z,16.17
2022-11-01T05:28:37.412Z,17.33
2022-11-01T05:31:05.403Z,16.45
2022-11-01T05:33:32.566Z,19.30
2022-11-01T05:36:02.018Z,18.58
2022-11-01T05:38:29.445Z,21.38
2022-11-01T05:40:56.786Z,22.40
2022-11-01T05:43:23.927Z,22.45
2022-11-01T05:45:51.389Z,21.10
2022-11-01T05:48:18.639Z,19.15
2022-11-01T05:50:47.048Z,20.13
2022-11-01T05:53:15.097Z,17.95
2022-11-01T05:55:42.514Z,16.02
2022-11-01T05:58:09.697Z,15.10
2022-11-01T06:00:37.326Z,15.20
2022-11-01T06:03:05.890Z,14.93
2022-11-01T06:05:34.232Z,15.05
2022-11-01T06:08:03.146Z,13.70
2022-11-01T06:10:32.104Z,13.85
2022-11-01T06:12:59.808Z,14.93
2022-11-01T06:15:28.330Z,15.63
2022-11-01T06:17:58.022Z,15.55
2022-11-01T06:20:32.762Z,16.60
2022-11-01T06:23:00.720Z,14.30
2022-11-01T06:25:28.855Z,15.60
2022-11-01T06:27:56.244Z,13.13
2022-11-01T06:30:23.570Z,14.27
2022-11-01T06:32:50.783Z,14.15
2022-11-01T06:35:18.557Z,12.70
2022-11-01T06:37:46.855Z,11.23
2022-11-01T06:40:14.360Z,12.40
2022-11-01T06:42:46.417Z,11.07
2022-11-01T06:45:14.968Z,10.48
2022-11-01T06:47:48.068Z,10.32
2022-11-01T06:50:17.149Z,9.90
2022-11-01T06:52:44.353Z,11.07
2022-11-01T06:55:11.723Z,10.73
2022-11-01T06:57:38.895Z,10.32
2022-11-01T07:00:08.201Z,9.73
2022-11-01T07:02:36.554Z,9.75
2022-11-01T07:05:04.226Z,9.07
2022-11-01T07:07:31.510Z,9.35
2022-11-01T07:09:58.929Z,10.23
2022-11-01T07:12:26.091Z,9.80
2022-11-01T07:14:53.443Z,9.90
2022-11-01T07:17:20.666Z,9.80
2022-11-01T07:19:48.012Z,9.13
2022-11-01T07:22:15.242Z,9.48
2022-11-01T07:24:42.682Z,10.30
2022-11-01T07:27:09.871Z,9.90
2022-11-01T07:29:37.811Z,9.43
2022-11-01T07:32:05.259Z,10.13
2022-11-01T07:34:32.666Z,9.73
2022-11-01T07:36:59.917Z,9.85
2022-11-01T07:39:27.259Z,9.68
2022-11-01T07:41:54.611Z,9.88
2022-11-01T07:44:22.230Z,9.60
2022-11-01T07:46:49.543Z,11.05
2022-11-01T07:49:16.948Z,9.77
2022-11-01T07:51:44.115Z,10.15
2022-11-01T07:54:11.958Z,10.60
2022-11-01T07:56:39.118Z,10.27
2022-11-01T07:59:08.020Z,9.95
2022-11-01T08:01:35.354Z,9.40
2022-11-01T08:04:03.131Z,8.82
2022-11-01T08:06:30.324Z,8.35
2022-11-01T08:08:57.726Z,8.77
2022-11-01T08:11:24.958Z,8.75
2022-11-01T08:13:52.373Z,8.25
2022-11-01T08:16:19.595Z,7.63
2022-11-01T08:18:47.286Z,7.68
2022-11-01T08:21:18.842Z,6.78
2022-11-01T08:23:47.174Z,7.82
2022-11-01T08:26:14.953Z,6.70
2022-11-01T08:28:42.941Z,6.25
2022-11-01T08:31:12.149Z,7.00
2022-11-01T08:33:39.623Z,6.90
2022-11-01T08:36:06.883Z,6.45
2022-11-01T08:38:34.418Z,6.30
2022-11-01T08:41:01.702Z,6.95
2022-11-01T08:43:29.550Z,6.30
2022-11-01T08:46:00.095Z,6.07
2022-11-01T08:48:27.517Z,6.65
2022-11-01T08:50:54.669Z,5.75
2022-11-01T08:53:22.632Z,6.00
2022-11-01T08:55:57.941Z,5.57
2022-11-01T08:58:25.598Z,5.80
2022-11-01T09:00:53.001Z,5.63
2022-11-01T09:03:20.530Z,6.25
2022-11-01T09:05:47.770Z,6.45
2022-11-01T09:08:15.255Z,5.57
2022-11-01T09:10:42.474Z,5.88
2022-11-01T09:13:09.872Z,7.68
2022-11-01T09:15:37.058Z,6.28
2022-11-01T09:18:07.455Z,5.75
2022-11-01T09:20:34.814Z,5.35
2022-11-01T09:23:02.560Z,5.78
2022-11-01T09:25:30.194Z,5.50
2022-11-01T09:27:58.073Z,5.38
2022-11-01T09:30:26.616Z,5.72
2022-11-01T09:32:54.268Z,6.28
2022-11-01T09:35:21.604Z,6.13
2022-11-01T09:37:49.043Z,6.13
2022-11-01T09:40:16.890Z,5.90
2022-11-01T09:42:46.460Z,5.60
2022-11-01T09:45:23.376Z,5.82
2022-11-01T09:47:56.174Z,5.93
2022-11-01T09:50:34.499Z,4.88
2022-11-01T09:53:08.923Z,6.03
2022-11-01T09:56:04.491Z,5.20
2022-11-01T09:59:17.879Z,5.13
2022-11-01T10:02:16.739Z,5.57
2022-11-01T10:05:18.900Z,6.38
2022-11-01T10:08:15.828Z,5.70
2022-11-01T10:11:25.398Z,5.68
2022-11-01T10:14:14.460Z,5.82
2022-11-01T10:16:59.152Z,6.55
2022-11-01T10:19:33.198Z,9.43
2022-11-01T10:22:12.299Z,8.50
2022-11-01T10:25:02.589Z,5.55
2022-11-01T10:27:42.046Z,6.15
2022-11-01T10:30:18.229Z,5.93
2022-11-01T10:33:35.615Z,6.18
2022-11-01T10:36:34.760Z,6.75
2022-11-01T10:42:23.698Z,7.20
2022-11-01T10:44:58.461Z,8.93
2022-11-01T10:47:28.092Z,5.30
2022-11-01T10:50:06.567Z,5.85
2022-11-01T10:53:00.141Z,6.55
2022-11-01T10:55:51.155Z,9.65
2022-11-01T10:58:41.662Z,5.50
2022-11-01T11:01:20.169Z,6.32
2022-11-01T11:03:49.545Z,6.35
2022-11-01T11:06:17.501Z,5.90
2022-11-01T11:08:54.629Z,5.85
2022-11-01T11:11:36.124Z,5.63
2022-11-01T11:14:09.992Z,5.90
2022-11-01T11:16:55.882Z,6.25
2022-11-01T11:19:39.777Z,6.60
2022-11-01T11:22:09.653Z,5.57
2022-11-01T11:24:43.965Z,6.00
2022-11-01T11:27:33.753Z,5.68
2022-11-01T11:30:08.532Z,5.47
2022-11-01T11:32:39.556Z,5.60
2022-11-01T11:35:19.651Z,7.00
2022-11-01T11:37:58.695Z,5.45
2022-11-01T11:40:43.397Z,6.32
2022-11-01T11:43:26.027Z,5.63
2022-11-01T11:46:23.772Z,5.88
2022-11-01T11:48:59.194Z,5.50
2022-11-01T11:51:29.979Z,5.65
2022-11-01T11:54:32.443Z,5.63
2022-11-01T11:57:15.971Z,6.38
2022-11-01T12:02:35.342Z,5.25
2022-11-01T12:05:09.116Z,9.00
2022-11-01T12:07:47.325Z,6.65
2022-11-01T12:10:41.093Z,6.15
2022-11-01T12:13:41.330Z,6.65
2022-11-01T12:19:01.835Z,9.73
2022-11-01T12:21:40.936Z,6.35
2022-11-01T12:24:50.866Z,6.20
2022-11-01T12:27:24.558Z,6.72
2022-11-01T12:29:59.733Z,6.50
2022-11-01T12:32:54.983Z,7.70
2022-11-01T12:35:38.202Z,6.63
2022-11-01T12:38:46.149Z,7.10
2022-11-01T12:41:26.284Z,6.68
2022-11-01T12:44:18.534Z,7.28
2022-11-01T12:47:00.797Z,6.88
2022-11-01T12:49:55.797Z,6.65
2022-11-01T12:52:43.534Z,6.97
2022-11-01T12:55:38.402Z,9.82
2022-11-01T12:58:13.131Z,11.10
2022-11-01T13:00:59.124Z,9.60
2022-11-01T13:03:48.276Z,7.63
2022-11-01T13:06:42.561Z,7.15
2022-11-01T13:09:53.317Z,6.63
2022-11-01T13:12:52.976Z,7.38
2022-11-01T13:15:25.715Z,6.85
2022-11-01T13:18:05.869Z,8.73
2022-11-01T13:20:58.673Z,9.90
2022-11-01T13:23:51.118Z,7.85
2022-11-01T13:26:21.081Z,6.38
2022-11-01T13:29:24.296Z,6.25
2022-11-01T13:31:59.208Z,6.75
2022-11-01T13:34:57.392Z,6.53
2022-11-01T13:37:33.549Z,6.10
2022-11-01T13:40:35.938Z,6.35
2022-11-01T13:43:15.547Z,6.75
2022-11-01T13:45:51.527Z,6.53
2022-11-01T13:48:47.052Z,6.85
2022-11-01T13:51:38.669Z,7.30
2022-11-01T13:54:32.245Z,7.50
2022-11-01T13:57:14.970Z,8.32
2022-11-01T13:59:45.160Z,8.23
2022-11-01T14:02:27.605Z,7.75
2022-11-01T14:05:13.585Z,7.43
2022-11-01T14:07:44.320Z,7.68
2022-11-01T14:10:31.431Z,7.82
2022-11-01T14:13:08.110Z,7.90
2022-11-01T14:16:28.216Z,7.88
2022-11-01T14:19:02.825Z,7.90
2022-11-01T14:21:53.484Z,7.93
2022-11-01T14:24:34.864Z,8.93
2022-11-01T14:27:22.918Z,8.55
2022-11-01T14:29:52.890Z,8.63
2022-11-01T14:32:27.991Z,8.25
2022-11-01T14:35:20.967Z,8.40
2022-11-01T14:37:52.897Z,8.60
2022-11-01T14:40:47.188Z,7.80
2022-11-01T14:43:42.827Z,8.95
2022-11-01T14:46:19.297Z,8.73
2022-11-01T14:49:40.127Z,9.30
2022-11-01T14:52:27.416Z,9.05
2022-11-01T14:55:06.432Z,8.93
2022-11-01T14:57:35.680Z,9.18
2022-11-01T15:00:28.723Z,8.98
2022-11-01T15:05:32.360Z,9.95
2022-11-01T15:08:00.343Z,9.25
2022-11-01T15:10:28.671Z,9.85
2022-11-01T15:13:02.342Z,11.20
2022-11-01T15:15:35.365Z,11.32
2022-11-01T15:18:15.926Z,11.38
2022-11-01T15:20:51.568Z,12.13
2022-11-01T15:23:37.169Z,11.43
2022-11-01T15:26:15.475Z,13.15
2022-11-01T15:28:52.358Z,11.43
2022-11-01T15:31:21.744Z,12.23
2022-11-01T15:34:04.849Z,12.25
2022-11-01T15:36:39.404Z,13.15
2022-11-01T15:39:29.464Z,12.45
2022-11-01T15:41:57.627Z,12.35
2022-11-01T15:44:29.758Z,12.13
2022-11-01T15:47:03.521Z,12.80
2022-11-01T15:49:42.805Z,13.02
2022-11-01T15:52:33.241Z,12.43
2022-11-01T15:55:09.356Z,12.30
2022-11-01T15:57:50.798Z,11.00
2022-11-01T16:00:22.983Z,12.50
2022-11-01T16:03:27.550Z,13.25
2022-11-01T16:06:07.959Z,12.20
2022-11-01T16:08:51.227Z,13.38
2022-11-01T16:11:24.187Z,12.77
2022-11-01T16:14:00.993Z,13.15
2022-11-01T16:16:29.165Z,12.85
2022-11-01T16:18:56.432Z,13.57
2022-11-01T16:21:31.014Z,12.93
2022-11-01T16:24:21.466Z,13.70
2022-11-01T16:27:04.935Z,13.63
2022-11-01T16:29:47.989Z,15.20
2022-11-01T16:32:35.981Z,16.23
2022-11-01T16:35:47.296Z,15.00
2022-11-01T16:38:32.692Z,13.95
2022-11-01T16:41:04.507Z,15.63
2022-11-01T16:43:35.929Z,15.82
2022-11-01T16:46:05.713Z,16.20
2022-11-01T16:48:49.011Z,17.90
2022-11-01T16:51:16.243Z,18.27
2022-11-01T16:53:43.879Z,18.75
2022-11-01T16:56:38.228Z,16.85
2022-11-01T16:59:23.677Z,17.70
2022-11-01T17:01:54.970Z,17.65
2022-11-01T17:04:23.194Z,18.27
2022-11-01T17:06:51.932Z,18.05
2022-11-01T17:09:22.767Z,17.77
2022-11-01T17:11:51.841Z,16.88
2022-11-01T17:14:21.537Z,15.68
2022-11-01T17:16:52.153Z,16.27
2022-11-01T17:19:31.173Z,16.02
2022-11-01T17:22:04.197Z,15.27
2022-11-01T17:24:33.507Z,14.82
2022-11-01T17:27:05.341Z,14.85
2022-11-01T17:29:33.603Z,19.30
2022-11-01T17:32:08.969Z,16.35
2022-11-01T17:34:38.112Z,17.33
2022-11-01T17:37:06.448Z,17.33
2022-11-01T17:39:34.716Z,16.67
2022-11-01T17:42:02.232Z,17.30
2022-11-01T17:44:29.747Z,15.77
2022-11-01T17:46:57.022Z,17.33
2022-11-01T17:49:24.794Z,16.95
2022-11-01T17:51:54.949Z,16.27
2022-11-01T17:56:51.713Z,18.08
2022-11-01T17:59:19.691Z,18.17
2022-11-01T18:01:47.377Z,16.20
2022-11-01T18:04:15.474Z,16.77
2022-11-01T18:06:43.879Z,16.83
2022-11-01T18:09:24.750Z,17.33
2022-11-01T18:12:23.888Z,18.98
2022-11-01T18:15:08.935Z,20.80
2022-11-01T18:18:16.413Z,19.70
2022-11-01T18:21:31.556Z,21.67
2022-11-01T18:24:03.867Z,23.00
2022-11-01T18:26:31.428Z,21.20
2022-11-01T18:29:24.720Z,21.42
2022-11-01T18:32:09.920Z,17.75
2022-11-01T18:34:49.670Z,17.42
2022-11-01T18:37:32.163Z,16.65
2022-11-01T18:40:25.835Z,15.77
2022-11-01T18:42:55.106Z,17.48
2022-11-01T18:45:33.104Z,17.85
2022-11-01T18:48:28.718Z,19.50
2022-11-01T18:51:05.247Z,19.48
2022-11-01T18:53:34.719Z,20.35
2022-11-01T18:56:21.517Z,19.00
2022-11-01T18:58:52.500Z,21.65
2022-11-01T19:01:33.676Z,21.90
2022-11-01T19:04:19.470Z,20.02
2022-11-01T19:06:46.772Z,19.63
2022-11-01T19:09:33.304Z,21.23
2022-11-01T19:12:55.312Z,20.52
2022-11-01T19:15:26.049Z,22.08
2022-11-01T19:17:59.643Z,20.50
2022-11-01T19:20:35.579Z,22.38
2022-11-01T19:23:11.189Z,23.38
2022-11-01T19:25:38.917Z,22.45
2022-11-01T19:28:46.034Z,24.05
2022-11-01T19:31:36.538Z,23.65
2022-11-01T19:34:12.175Z,23.30
2022-11-01T19:36:44.456Z,24.20
2022-11-01T19:39:27.926Z,22.30
2022-11-01T19:42:12.485Z,22.02
2022-11-01T19:44:39.655Z,21.58
2022-11-01T19:47:39.476Z,22.35
2022-11-01T19:50:16.101Z,23.75
2022-11-01T19:52:47.455Z,25.10
2022-11-01T19:55:37.081Z,25.33
2022-11-01T19:58:22.644Z,25.50
2022-11-01T20:00:50.743Z,24.42
2022-11-01T20:03:34.417Z,24.05
2022-11-01T20:06:02.012Z,23.02
2022-11-01T20:08:35.466Z,21.85
2022-11-01T20:11:02.700Z,22.02
2022-11-01T20:13:30.108Z,22.05
2022-11-01T20:15:57.326Z,20.02
2022-11-01T20:18:24.775Z,19.92
2022-11-01T20:20:53.945Z,18.60
2022-11-01T20:23:26.270Z,19.60
2022-11-01T20:25:55.272Z,19.10
2022-11-01T20:28:22.716Z,20.17
2022-11-01T20:30:50.008Z,20.75
2022-11-01T20:33:17.842Z,20.05
2022-11-01T20:35:45.018Z,21.02
2022-11-01T20:38:12.477Z,20.92
2022-11-01T20:40:39.763Z,21.15
2022-11-01T20:43:07.667Z,21.10
2022-11-01T20:45:35.214Z,22.92
2022-11-01T20:48:03.834Z,21.20
2022-11-01T20:50:31.065Z,20.20
2022-11-01T20:52:58.660Z,22.55
2022-11-01T20:55:25.858Z,22.20
2022-11-01T20:57:53.793Z,22.85
2022-11-01T21:00:21.319Z,23.17
2022-11-01T21:02:50.183Z,22.60
2022-11-01T21:05:31.077Z,22.83
2022-11-01T21:08:10.495Z,24.08
2022-11-01T21:10:41.137Z,22.67
2022-11-01T21:13:23.963Z,22.75
2022-11-01T21:15:53.418Z,22.63
2022-11-01T21:18:20.745Z,24.42
2022-11-01T21:20:49.438Z,24.85
2022-11-01T21:23:28.647Z,25.67
2022-11-01T21:25:59.724Z,25.13
2022-11-01T21:28:32.997Z,24.50
2022-11-01T21:31:15.308Z,25.40
2022-11-01T21:34:10.209Z,26.67
2022-11-01T21:36:53.366Z,25.20
2022-11-01T21:39:32.942Z,26.00
2022-11-01T21:42:29.542Z,24.45
2022-11-01T21:44:57.335Z,26.88
2022-11-01T21:47:32.852Z,27.88
2022-11-01T21:50:00.287Z,27.45
2022-11-01T21:52:27.486Z,25.00
2022-11-01T21:54:54.900Z,25.67
2022-11-01T21:57:22.089Z,26.77
2022-11-01T21:59:49.513Z,27.90
2022-11-01T22:02:16.913Z,26.70
2022-11-01T22:04:45.517Z,24.85
2022-11-01T22:07:12.774Z,25.67
2022-11-01T22:09:40.317Z,27.08
2022-11-01T22:12:08.199Z,25.00
2022-11-01T22:14:35.685Z,25.88
2022-11-01T22:17:03.205Z,27.83
2022-11-01T22:19:30.590Z,27.90
2022-11-01T22:21:57.902Z,28.05
2022-11-01T22:24:25.761Z,27.67
2022-11-01T22:26:53.134Z,25.90
2022-11-01T22:29:20.543Z,25.13
2022-11-01T22:31:47.824Z,24.17
2022-11-01T22:34:17.355Z,23.30
2022-11-01T22:36:44.649Z,27.42
2022-11-01T22:39:27.836Z,24.63
2022-11-01T22:41:55.136Z,23.70
2022-11-01T22:44:32.522Z,23.55
2022-11-01T22:47:02.152Z,24.23
2022-11-01T22:50:14.299Z,23.23
2022-11-01T22:52:45.178Z,23.17
2022-11-01T22:55:15.467Z,25.55
2022-11-01T22:57:57.754Z,24.73
2022-11-01T23:00:36.335Z,25.45
2022-11-01T23:03:21.806Z,24.15
2022-11-01T23:06:02.203Z,24.48
2022-11-01T23:08:33.481Z,25.42
2022-11-01T23:11:02.212Z,26.85
2022-11-01T23:13:52.600Z,24.88
2022-11-01T23:16:41.665Z,26.63
2022-11-01T23:19:13.367Z,25.73
2022-11-01T23:21:40.837Z,26.75
2022-11-01T23:24:08.597Z,27.17
2022-11-01T23:26:36.036Z,26.40
2022-11-01T23:29:03.458Z,26.75
2022-11-01T23:31:30.926Z,26.63
2022-11-01T23:33:58.166Z,25.83
2022-11-01T23:36:30.807Z,26.50
2022-11-01T23:39:04.501Z,28.75
2022-11-01T23:41:52.419Z,26.45
2022-11-01T23:44:39.414Z,28.95
2022-11-01T23:47:41.635Z,28.30
2022-11-01T23:50:20.305Z,28.30
2022-11-01T23:53:02.218Z,28.25
2022-11-01T23:55:38.466Z,29.23
2022-11-01T23:58:13.226Z,31.05
